Terminal Aerodrome Forecast
Issued by NWS Duluth, MN

Home | Current Version | Previous Version | Text Only | Print | Product List | Glossary On
Versions: 1 2 3 4 5 6 7 8 9 10 11 12 13 14 15 16 17 18 19 20 21 22 23
000
FTUS43 KDLH 190537
TAFDLH
TAF
KDLH 190537Z 1906/2006 30010G16KT P6SM -SN BKN021
     FM190730 30010KT P6SM SCT021
     FM191600 27007KT P6SM BKN070
     FM191700 27008KT P6SM VCSH SCT025 BKN050
     FM192100 24009KT P6SM BKN060
     FM200000 24006KT P6SM SCT060=

USA.gov is the U.S. government's official web portal to all federal, state and local government web resources and services.